sensor_id;sensor_type;location;lat;lon;timestamp;P1;durP1;ratioP1;P2;durP2;ratioP2
17985;SDS011;9118;48.122;11.546;2023-02-26T00:01:24;4.30;;;2.53;;
17985;SDS011;9118;48.122;11.546;2023-02-26T00:03:53;3.03;;;2.17;;
17985;SDS011;9118;48.122;11.546;2023-02-26T00:06:22;2.50;;;2.30;;
17985;SDS011;9118;48.122;11.546;2023-02-26T00:08:51;3.07;;;2.70;;
17985;SDS011;9118;48.122;11.546;2023-02-26T00:11:18;3.60;;;2.70;;
17985;SDS011;9118;48.122;11.546;2023-02-26T00:13:46;3.23;;;2.80;;
17985;SDS011;9118;48.122;11.546;2023-02-26T00:16:17;4.33;;;3.20;;
17985;SDS011;9118;48.122;11.546;2023-02-26T00:18:52;4.97;;;3.10;;
17985;SDS011;9118;48.122;11.546;2023-02-26T00:21:20;7.27;;;4.87;;
17985;SDS011;9118;48.122;11.546;2023-02-26T00:23:50;4.93;;;3.60;;
17985;SDS011;9118;48.122;11.546;2023-02-26T00:26:17;4.87;;;3.33;;
17985;SDS011;9118;48.122;11.546;2023-02-26T00:28:44;3.80;;;3.30;;
17985;SDS011;9118;48.122;11.546;2023-02-26T00:31:13;4.70;;;3.67;;
17985;SDS011;9118;48.122;11.546;2023-02-26T00:33:41;3.33;;;3.03;;
17985;SDS011;9118;48.122;11.546;2023-02-26T00:36:15;3.93;;;3.53;;
17985;SDS011;9118;48.122;11.546;2023-02-26T00:38:49;3.90;;;3.10;;
17985;SDS011;9118;48.122;11.546;2023-02-26T00:41:32;3.90;;;3.23;;
17985;SDS011;9118;48.122;11.546;2023-02-26T00:44:00;3.50;;;2.93;;
17985;SDS011;9118;48.122;11.546;2023-02-26T00:46:29;4.07;;;3.40;;
17985;SDS011;9118;48.122;11.546;2023-02-26T00:49:06;3.87;;;2.80;;
17985;SDS011;9118;48.122;11.546;2023-02-26T00:51:43;3.77;;;3.17;;
17985;SDS011;9118;48.122;11.546;2023-02-26T00:54:15;4.10;;;2.93;;
17985;SDS011;9118;48.122;11.546;2023-02-26T00:56:45;4.20;;;3.20;;
17985;SDS011;9118;48.122;11.546;2023-02-26T00:59:12;4.43;;;3.60;;
17985;SDS011;9118;48.122;11.546;2023-02-26T01:01:39;4.97;;;3.57;;
17985;SDS011;9118;48.122;11.546;2023-02-26T01:04:07;3.43;;;2.60;;
17985;SDS011;9118;48.122;11.546;2023-02-26T01:06:37;3.37;;;3.07;;
17985;SDS011;9118;48.122;11.546;2023-02-26T01:09:10;3.30;;;3.00;;
17985;SDS011;9118;48.122;11.546;2023-02-26T01:11:42;3.23;;;2.80;;
17985;SDS011;9118;48.122;11.546;2023-02-26T01:14:09;3.13;;;2.80;;
17985;SDS011;9118;48.122;11.546;2023-02-26T01:16:39;2.80;;;2.43;;
17985;SDS011;9118;48.122;11.546;2023-02-26T01:19:14;3.03;;;2.43;;
17985;SDS011;9118;48.122;11.546;2023-02-26T01:21:48;3.33;;;2.60;;
17985;SDS011;9118;48.122;11.546;2023-02-26T01:24:20;2.70;;;2.30;;
17985;SDS011;9118;48.122;11.546;2023-02-26T01:26:50;2.90;;;2.60;;
17985;SDS011;9118;48.122;11.546;2023-02-26T01:29:17;2.60;;;2.40;;
17985;SDS011;9118;48.122;11.546;2023-02-26T01:31:47;2.40;;;2.20;;
17985;SDS011;9118;48.122;11.546;2023-02-26T01:34:18;3.13;;;2.53;;
17985;SDS011;9118;48.122;11.546;2023-02-26T01:36:51;3.07;;;2.67;;
17985;SDS011;9118;48.122;11.546;2023-02-26T01:39:27;2.90;;;2.70;;
17985;SDS011;9118;48.122;11.546;2023-02-26T01:41:57;4.27;;;2.70;;
17985;SDS011;9118;48.122;11.546;2023-02-26T01:44:31;3.30;;;2.80;;
17985;SDS011;9118;48.122;11.546;2023-02-26T01:47:09;2.80;;;2.43;;
17985;SDS011;9118;48.122;11.546;2023-02-26T01:49:42;2.53;;;2.30;;
17985;SDS011;9118;48.122;11.546;2023-02-26T01:55:27;3.27;;;2.70;;
17985;SDS011;9118;48.122;11.546;2023-02-26T01:57:55;3.23;;;2.90;;
17985;SDS011;9118;48.122;11.546;2023-02-26T02:00:25;3.27;;;2.37;;
17985;SDS011;9118;48.122;11.546;2023-02-26T02:02:52;3.60;;;2.33;;
17985;SDS011;9118;48.122;11.546;2023-02-26T02:05:20;2.80;;;2.47;;
17985;SDS011;9118;48.122;11.546;2023-02-26T02:07:51;3.17;;;2.50;;
17985;SDS011;9118;48.122;11.546;2023-02-26T02:10:18;5.13;;;3.27;;
17985;SDS011;9118;48.122;11.546;2023-02-26T02:12:48;3.10;;;2.57;;
17985;SDS011;9118;48.122;11.546;2023-02-26T02:15:21;3.40;;;2.80;;
17985;SDS011;9118;48.122;11.546;2023-02-26T02:17:56;3.03;;;2.67;;
17985;SDS011;9118;48.122;11.546;2023-02-26T02:20:42;3.03;;;2.57;;
17985;SDS011;9118;48.122;11.546;2023-02-26T02:23:26;3.27;;;2.60;;
17985;SDS011;9118;48.122;11.546;2023-02-26T02:26:05;2.93;;;2.17;;
17985;SDS011;9118;48.122;11.546;2023-02-26T02:28:41;3.73;;;2.40;;
17985;SDS011;9118;48.122;11.546;2023-02-26T02:31:13;2.50;;;2.20;;
17985;SDS011;9118;48.122;11.546;2023-02-26T02:33:43;4.17;;;2.50;;
17985;SDS011;9118;48.122;11.546;2023-02-26T02:36:14;2.90;;;2.33;;
17985;SDS011;9118;48.122;11.546;2023-02-26T02:38:47;2.80;;;2.13;;
17985;SDS011;9118;48.122;11.546;2023-02-26T02:41:18;4.70;;;2.50;;
17985;SDS011;9118;48.122;11.546;2023-02-26T02:43:48;3.03;;;2.20;;
17985;SDS011;9118;48.122;11.546;2023-02-26T02:46:19;2.67;;;2.47;;
17985;SDS011;9118;48.122;11.546;2023-02-26T02:48:52;3.87;;;2.27;;
17985;SDS011;9118;48.122;11.546;2023-02-26T02:51:24;3.90;;;2.30;;
17985;SDS011;9118;48.122;11.546;2023-02-26T02:53:56;3.67;;;2.83;;
17985;SDS011;9118;48.122;11.546;2023-02-26T02:56:27;3.50;;;2.80;;
17985;SDS011;9118;48.122;11.546;2023-02-26T02:59:00;3.37;;;2.70;;
17985;SDS011;9118;48.122;11.546;2023-02-26T03:01:33;3.47;;;2.60;;
17985;SDS011;9118;48.122;11.546;2023-02-26T03:04:04;4.67;;;3.17;;
17985;SDS011;9118;48.122;11.546;2023-02-26T03:06:34;4.53;;;2.83;;
17985;SDS011;9118;48.122;11.546;2023-02-26T03:09:01;3.10;;;2.50;;
17985;SDS011;9118;48.122;11.546;2023-02-26T03:11:29;4.20;;;2.30;;
17985;SDS011;9118;48.122;11.546;2023-02-26T03:13:56;3.83;;;2.60;;
17985;SDS011;9118;48.122;11.546;2023-02-26T03:16:28;4.33;;;2.33;;
17985;SDS011;9118;48.122;11.546;2023-02-26T03:18:59;3.23;;;2.00;;
17985;SDS011;9118;48.122;11.546;2023-02-26T03:21:33;3.63;;;2.20;;
17985;SDS011;9118;48.122;11.546;2023-02-26T03:24:03;3.33;;;2.20;;
17985;SDS011;9118;48.122;11.546;2023-02-26T03:26:33;4.27;;;2.00;;
17985;SDS011;9118;48.122;11.546;2023-02-26T03:29:03;2.60;;;1.90;;
17985;SDS011;9118;48.122;11.546;2023-02-26T03:31:33;3.93;;;2.37;;
17985;SDS011;9118;48.122;11.546;2023-02-26T03:34:03;2.50;;;2.13;;
17985;SDS011;9118;48.122;11.546;2023-02-26T03:36:36;5.27;;;2.10;;
17985;SDS011;9118;48.122;11.546;2023-02-26T03:39:08;5.43;;;2.57;;
17985;SDS011;9118;48.122;11.546;2023-02-26T03:41:39;2.90;;;2.10;;
17985;SDS011;9118;48.122;11.546;2023-02-26T03:44:09;4.47;;;2.20;;
17985;SDS011;9118;48.122;11.546;2023-02-26T03:46:39;3.10;;;2.10;;
17985;SDS011;9118;48.122;11.546;2023-02-26T03:49:13;3.07;;;2.10;;
17985;SDS011;9118;48.122;11.546;2023-02-26T03:51:43;4.63;;;2.33;;
17985;SDS011;9118;48.122;11.546;2023-02-26T03:54:14;4.37;;;2.20;;
17985;SDS011;9118;48.122;11.546;2023-02-26T03:56:46;2.33;;;2.10;;
17985;SDS011;9118;48.122;11.546;2023-02-26T03:59:14;5.63;;;2.60;;
17985;SDS011;9118;48.122;11.546;2023-02-26T04:01:43;3.53;;;2.00;;
17985;SDS011;9118;48.122;11.546;2023-02-26T04:04:15;5.10;;;2.00;;
17985;SDS011;9118;48.122;11.546;2023-02-26T04:06:47;4.93;;;2.53;;
17985;SDS011;9118;48.122;11.546;2023-02-26T04:09:17;3.90;;;2.27;;
17985;SDS011;9118;48.122;11.546;2023-02-26T04:11:45;3.13;;;2.17;;
17985;SDS011;9118;48.122;11.546;2023-02-26T04:14:14;4.37;;;2.50;;
17985;SDS011;9118;48.122;11.546;2023-02-26T04:16:41;4.47;;;2.57;;
17985;SDS011;9118;48.122;11.546;2023-02-26T04:19:09;3.43;;;2.30;;
17985;SDS011;9118;48.122;11.546;2023-02-26T04:21:37;3.80;;;2.37;;
17985;SDS011;9118;48.122;11.546;2023-02-26T04:24:04;4.40;;;2.90;;
17985;SDS011;9118;48.122;11.546;2023-02-26T04:26:31;2.60;;;2.40;;
17985;SDS011;9118;48.122;11.546;2023-02-26T04:28:58;4.90;;;2.40;;
17985;SDS011;9118;48.122;11.546;2023-02-26T04:31:25;4.17;;;2.60;;
17985;SDS011;9118;48.122;11.546;2023-02-26T04:33:52;2.87;;;2.37;;
17985;SDS011;9118;48.122;11.546;2023-02-26T04:36:19;3.37;;;2.20;;
17985;SDS011;9118;48.122;11.546;2023-02-26T04:38:47;3.90;;;2.37;;
17985;SDS011;9118;48.122;11.546;2023-02-26T04:41:14;5.70;;;2.33;;
17985;SDS011;9118;48.122;11.546;2023-02-26T04:43:41;5.03;;;2.00;;
17985;SDS011;9118;48.122;11.546;2023-02-26T04:46:08;3.13;;;2.03;;
17985;SDS011;9118;48.122;11.546;2023-02-26T04:48:35;3.30;;;2.30;;
17985;SDS011;9118;48.122;11.546;2023-02-26T04:51:03;2.87;;;1.90;;
17985;SDS011;9118;48.122;11.546;2023-02-26T04:53:30;3.60;;;2.20;;
17985;SDS011;9118;48.122;11.546;2023-02-26T04:55:58;4.10;;;2.30;;
17985;SDS011;9118;48.122;11.546;2023-02-26T04:58:25;4.50;;;1.77;;
17985;SDS011;9118;48.122;11.546;2023-02-26T05:00:52;3.47;;;2.37;;
17985;SDS011;9118;48.122;11.546;2023-02-26T05:03:20;3.37;;;2.40;;
17985;SDS011;9118;48.122;11.546;2023-02-26T05:05:47;3.70;;;2.30;;
17985;SDS011;9118;48.122;11.546;2023-02-26T05:08:14;3.17;;;2.30;;
17985;SDS011;9118;48.122;11.546;2023-02-26T05:10:41;2.90;;;2.30;;
17985;SDS011;9118;48.122;11.546;2023-02-26T05:13:10;2.53;;;2.23;;
17985;SDS011;9118;48.122;11.546;2023-02-26T05:15:37;3.50;;;2.00;;
17985;SDS011;9118;48.122;11.546;2023-02-26T05:18:04;2.67;;;2.03;;
17985;SDS011;9118;48.122;11.546;2023-02-26T05:20:31;4.40;;;2.23;;
17985;SDS011;9118;48.122;11.546;2023-02-26T05:22:58;4.60;;;2.30;;
17985;SDS011;9118;48.122;11.546;2023-02-26T05:25:25;2.57;;;2.10;;
17985;SDS011;9118;48.122;11.546;2023-02-26T05:27:52;3.87;;;2.10;;
17985;SDS011;9118;48.122;11.546;2023-02-26T05:30:21;3.30;;;1.93;;
17985;SDS011;9118;48.122;11.546;2023-02-26T05:32:48;3.93;;;2.33;;
17985;SDS011;9118;48.122;11.546;2023-02-26T05:35:15;5.53;;;2.43;;
17985;SDS011;9118;48.122;11.546;2023-02-26T05:37:42;4.43;;;2.10;;
17985;SDS011;9118;48.122;11.546;2023-02-26T05:40:09;4.93;;;2.27;;
17985;SDS011;9118;48.122;11.546;2023-02-26T05:42:38;3.17;;;2.00;;
17985;SDS011;9118;48.122;11.546;2023-02-26T05:45:06;3.47;;;2.13;;
17985;SDS011;9118;48.122;11.546;2023-02-26T05:47:35;6.80;;;2.23;;
17985;SDS011;9118;48.122;11.546;2023-02-26T05:50:03;4.37;;;2.20;;
17985;SDS011;9118;48.122;11.546;2023-02-26T05:52:31;4.30;;;2.30;;
17985;SDS011;9118;48.122;11.546;2023-02-26T05:54:59;2.83;;;2.00;;
17985;SDS011;9118;48.122;11.546;2023-02-26T05:57:26;6.67;;;2.43;;
17985;SDS011;9118;48.122;11.546;2023-02-26T05:59:53;3.23;;;2.20;;
17985;SDS011;9118;48.122;11.546;2023-02-26T06:02:20;3.50;;;2.50;;
17985;SDS011;9118;48.122;11.546;2023-02-26T06:04:48;3.37;;;2.60;;
17985;SDS011;9118;48.122;11.546;2023-02-26T06:07:15;3.40;;;2.37;;
17985;SDS011;9118;48.122;11.546;2023-02-26T06:09:42;4.53;;;2.30;;
17985;SDS011;9118;48.122;11.546;2023-02-26T06:12:09;5.37;;;2.57;;
17985;SDS011;9118;48.122;11.546;2023-02-26T06:14:36;3.10;;;2.23;;
17985;SDS011;9118;48.122;11.546;2023-02-26T06:17:03;5.23;;;2.40;;
17985;SDS011;9118;48.122;11.546;2023-02-26T06:19:30;5.63;;;2.67;;
17985;SDS011;9118;48.122;11.546;2023-02-26T06:21:59;2.50;;;2.00;;
17985;SDS011;9118;48.122;11.546;2023-02-26T06:24:26;4.63;;;2.43;;
17985;SDS011;9118;48.122;11.546;2023-02-26T06:26:53;4.40;;;2.40;;
17985;SDS011;9118;48.122;11.546;2023-02-26T06:29:20;4.50;;;2.63;;
17985;SDS011;9118;48.122;11.546;2023-02-26T06:31:47;3.33;;;2.30;;
17985;SDS011;9118;48.122;11.546;2023-02-26T06:34:14;3.20;;;2.13;;
17985;SDS011;9118;48.122;11.546;2023-02-26T06:36:42;2.67;;;2.00;;
17985;SDS011;9118;48.122;11.546;2023-02-26T06:39:11;3.77;;;2.40;;
17985;SDS011;9118;48.122;11.546;2023-02-26T06:41:38;2.37;;;1.93;;
17985;SDS011;9118;48.122;11.546;2023-02-26T06:44:05;3.13;;;2.23;;
17985;SDS011;9118;48.122;11.546;2023-02-26T06:46:32;4.67;;;2.43;;
17985;SDS011;9118;48.122;11.546;2023-02-26T06:48:59;4.87;;;2.73;;
17985;SDS011;9118;48.122;11.546;2023-02-26T06:51:26;4.27;;;2.67;;
17985;SDS011;9118;48.122;11.546;2023-02-26T06:53:53;3.87;;;2.33;;
17985;SDS011;9118;48.122;11.546;2023-02-26T06:56:21;7.37;;;3.33;;
17985;SDS011;9118;48.122;11.546;2023-02-26T06:58:48;5.07;;;2.53;;
17985;SDS011;9118;48.122;11.546;2023-02-26T07:01:15;3.33;;;2.30;;
17985;SDS011;9118;48.122;11.546;2023-02-26T07:03:42;4.10;;;2.40;;
17985;SDS011;9118;48.122;11.546;2023-02-26T07:06:10;3.30;;;2.17;;
17985;SDS011;9118;48.122;11.546;2023-02-26T07:08:37;4.40;;;3.70;;
17985;SDS011;9118;48.122;11.546;2023-02-26T07:11:05;6.57;;;4.67;;
17985;SDS011;9118;48.122;11.546;2023-02-26T07:13:34;3.77;;;2.63;;
17985;SDS011;9118;48.122;11.546;2023-02-26T07:16:01;6.13;;;4.17;;
17985;SDS011;9118;48.122;11.546;2023-02-26T07:18:31;6.20;;;3.03;;
17985;SDS011;9118;48.122;11.546;2023-02-26T07:20:58;4.80;;;3.20;;
17985;SDS011;9118;48.122;11.546;2023-02-26T07:23:25;5.43;;;3.47;;
17985;SDS011;9118;48.122;11.546;2023-02-26T07:25:52;5.57;;;2.80;;
17985;SDS011;9118;48.122;11.546;2023-02-26T07:28:19;5.17;;;2.53;;
17985;SDS011;9118;48.122;11.546;2023-02-26T07:30:47;5.47;;;2.60;;
17985;SDS011;9118;48.122;11.546;2023-02-26T07:33:14;4.43;;;3.13;;
17985;SDS011;9118;48.122;11.546;2023-02-26T07:35:41;2.67;;;2.17;;
17985;SDS011;9118;48.122;11.546;2023-02-26T07:38:08;4.03;;;2.83;;
17985;SDS011;9118;48.122;11.546;2023-02-26T07:40:35;4.07;;;3.10;;
17985;SDS011;9118;48.122;11.546;2023-02-26T07:43:02;4.53;;;3.40;;
17985;SDS011;9118;48.122;11.546;2023-02-26T07:45:29;3.50;;;2.70;;
17985;SDS011;9118;48.122;11.546;2023-02-26T07:47:57;6.93;;;4.37;;
17985;SDS011;9118;48.122;11.546;2023-02-26T07:50:24;4.43;;;3.00;;
17985;SDS011;9118;48.122;11.546;2023-02-26T07:52:51;8.07;;;4.30;;
17985;SDS011;9118;48.122;11.546;2023-02-26T07:55:19;3.93;;;3.10;;
17985;SDS011;9118;48.122;11.546;2023-02-26T07:57:46;7.90;;;4.83;;
17985;SDS011;9118;48.122;11.546;2023-02-26T08:00:14;5.97;;;4.20;;
17985;SDS011;9118;48.122;11.546;2023-02-26T08:02:42;9.50;;;5.40;;
17985;SDS011;9118;48.122;11.546;2023-02-26T08:05:10;5.63;;;3.50;;
17985;SDS011;9118;48.122;11.546;2023-02-26T08:07:37;7.43;;;4.40;;
17985;SDS011;9118;48.122;11.546;2023-02-26T08:10:04;6.20;;;4.10;;
17985;SDS011;9118;48.122;11.546;2023-02-26T08:12:32;5.17;;;4.13;;
17985;SDS011;9118;48.122;11.546;2023-02-26T08:15:00;7.13;;;4.37;;
17985;SDS011;9118;48.122;11.546;2023-02-26T08:17:27;5.60;;;3.53;;
17985;SDS011;9118;48.122;11.546;2023-02-26T08:19:54;5.97;;;4.30;;
17985;SDS011;9118;48.122;11.546;2023-02-26T08:22:22;5.30;;;3.17;;
17985;SDS011;9118;48.122;11.546;2023-02-26T08:24:49;4.53;;;3.27;;
17985;SDS011;9118;48.122;11.546;2023-02-26T08:27:16;5.03;;;3.53;;
17985;SDS011;9118;48.122;11.546;2023-02-26T08:29:43;6.57;;;3.20;;
17985;SDS011;9118;48.122;11.546;2023-02-26T08:32:14;7.23;;;3.70;;
17985;SDS011;9118;48.122;11.546;2023-02-26T08:34:43;4.67;;;3.40;;
17985;SDS011;9118;48.122;11.546;2023-02-26T08:37:10;6.03;;;3.80;;
17985;SDS011;9118;48.122;11.546;2023-02-26T08:39:39;5.57;;;3.17;;
17985;SDS011;9118;48.122;11.546;2023-02-26T08:42:06;3.77;;;2.90;;
17985;SDS011;9118;48.122;11.546;2023-02-26T08:44:35;5.53;;;4.33;;
17985;SDS011;9118;48.122;11.546;2023-02-26T08:47:03;4.57;;;3.40;;
17985;SDS011;9118;48.122;11.546;2023-02-26T08:49:30;3.80;;;3.40;;
17985;SDS011;9118;48.122;11.546;2023-02-26T08:51:57;7.07;;;3.53;;
17985;SDS011;9118;48.122;11.546;2023-02-26T08:54:24;4.53;;;3.50;;
17985;SDS011;9118;48.122;11.546;2023-02-26T08:56:53;6.77;;;3.97;;
17985;SDS011;9118;48.122;11.546;2023-02-26T08:59:21;4.10;;;3.40;;
17985;SDS011;9118;48.122;11.546;2023-02-26T09:01:51;4.50;;;3.00;;
17985;SDS011;9118;48.122;11.546;2023-02-26T09:04:18;4.60;;;3.07;;
17985;SDS011;9118;48.122;11.546;2023-02-26T09:06:48;5.20;;;3.50;;
17985;SDS011;9118;48.122;11.546;2023-02-26T09:09:16;7.57;;;5.40;;
17985;SDS011;9118;48.122;11.546;2023-02-26T09:11:44;5.50;;;3.50;;
17985;SDS011;9118;48.122;11.546;2023-02-26T09:14:13;5.73;;;3.47;;
17985;SDS011;9118;48.122;11.546;2023-02-26T09:16:40;4.63;;;3.57;;
17985;SDS011;9118;48.122;11.546;2023-02-26T09:19:07;4.47;;;3.57;;
17985;SDS011;9118;48.122;11.546;2023-02-26T09:21:35;4.23;;;3.43;;
17985;SDS011;9118;48.122;11.546;2023-02-26T09:24:02;5.90;;;4.03;;
17985;SDS011;9118;48.122;11.546;2023-02-26T09:26:29;7.20;;;4.27;;
17985;SDS011;9118;48.122;11.546;2023-02-26T09:28:56;6.07;;;4.37;;
17985;SDS011;9118;48.122;11.546;2023-02-26T09:31:25;7.57;;;5.57;;
17985;SDS011;9118;48.122;11.546;2023-02-26T09:33:52;5.40;;;3.87;;
17985;SDS011;9118;48.122;11.546;2023-02-26T09:36:19;7.83;;;5.93;;
17985;SDS011;9118;48.122;11.546;2023-02-26T09:38:46;4.53;;;4.13;;
17985;SDS011;9118;48.122;11.546;2023-02-26T09:41:15;5.10;;;3.80;;
17985;SDS011;9118;48.122;11.546;2023-02-26T09:43:55;4.10;;;3.70;;
17985;SDS011;9118;48.122;11.546;2023-02-26T09:46:37;5.60;;;3.77;;
17985;SDS011;9118;48.122;11.546;2023-02-26T09:49:11;4.53;;;3.70;;
17985;SDS011;9118;48.122;11.546;2023-02-26T09:51:44;4.83;;;3.90;;
17985;SDS011;9118;48.122;11.546;2023-02-26T09:54:17;5.87;;;3.87;;
17985;SDS011;9118;48.122;11.546;2023-02-26T09:56:47;4.53;;;4.00;;
17985;SDS011;9118;48.122;11.546;2023-02-26T09:59:17;4.30;;;3.90;;
17985;SDS011;9118;48.122;11.546;2023-02-26T10:01:47;5.27;;;3.80;;
17985;SDS011;9118;48.122;11.546;2023-02-26T10:04:24;6.10;;;4.00;;
17985;SDS011;9118;48.122;11.546;2023-02-26T10:07:08;4.47;;;4.07;;
17985;SDS011;9118;48.122;11.546;2023-02-26T10:09:51;4.40;;;3.77;;
17985;SDS011;9118;48.122;11.546;2023-02-26T10:12:28;5.03;;;4.20;;
17985;SDS011;9118;48.122;11.546;2023-02-26T10:15:02;4.20;;;3.80;;
17985;SDS011;9118;48.122;11.546;2023-02-26T10:17:37;4.67;;;3.70;;
17985;SDS011;9118;48.122;11.546;2023-02-26T10:20:10;5.17;;;4.20;;
17985;SDS011;9118;48.122;11.546;2023-02-26T10:22:44;5.70;;;4.10;;
17985;SDS011;9118;48.122;11.546;2023-02-26T10:25:22;4.93;;;4.30;;
17985;SDS011;9118;48.122;11.546;2023-02-26T10:28:13;5.37;;;4.17;;
17985;SDS011;9118;48.122;11.546;2023-02-26T10:31:01;8.47;;;4.20;;
17985;SDS011;9118;48.122;11.546;2023-02-26T10:33:35;4.33;;;3.77;;
17985;SDS011;9118;48.122;11.546;2023-02-26T10:36:08;6.97;;;5.03;;
17985;SDS011;9118;48.122;11.546;2023-02-26T10:38:42;6.73;;;4.50;;
17985;SDS011;9118;48.122;11.546;2023-02-26T10:41:13;5.97;;;4.67;;
17985;SDS011;9118;48.122;11.546;2023-02-26T10:43:47;5.00;;;4.27;;
17985;SDS011;9118;48.122;11.546;2023-02-26T10:46:18;4.70;;;4.30;;
17985;SDS011;9118;48.122;11.546;2023-02-26T10:48:56;6.80;;;4.97;;
17985;SDS011;9118;48.122;11.546;2023-02-26T10:51:47;4.87;;;4.23;;
17985;SDS011;9118;48.122;11.546;2023-02-26T10:54:18;5.73;;;4.10;;
17985;SDS011;9118;48.122;11.546;2023-02-26T10:56:48;4.43;;;3.90;;
17985;SDS011;9118;48.122;11.546;2023-02-26T10:59:15;6.33;;;5.23;;
17985;SDS011;9118;48.122;11.546;2023-02-26T11:01:43;5.40;;;4.60;;
17985;SDS011;9118;48.122;11.546;2023-02-26T11:04:13;4.27;;;3.83;;
17985;SDS011;9118;48.122;11.546;2023-02-26T11:06:45;4.00;;;3.50;;
17985;SDS011;9118;48.122;11.546;2023-02-26T11:09:18;3.60;;;3.30;;
17985;SDS011;9118;48.122;11.546;2023-02-26T11:11:47;4.87;;;3.60;;
17985;SDS011;9118;48.122;11.546;2023-02-26T11:14:14;8.13;;;4.17;;
17985;SDS011;9118;48.122;11.546;2023-02-26T11:16:44;4.77;;;4.07;;
17985;SDS011;9118;48.122;11.546;2023-02-26T11:19:16;5.80;;;4.33;;
17985;SDS011;9118;48.122;11.546;2023-02-26T11:21:45;5.00;;;4.50;;
17985;SDS011;9118;48.122;11.546;2023-02-26T11:24:15;4.80;;;4.30;;
17985;SDS011;9118;48.122;11.546;2023-02-26T11:26:47;5.07;;;3.83;;
17985;SDS011;9118;48.122;11.546;2023-02-26T11:29:17;4.40;;;4.00;;
17985;SDS011;9118;48.122;11.546;2023-02-26T11:31:49;5.57;;;4.00;;
17985;SDS011;9118;48.122;11.546;2023-02-26T11:34:20;4.83;;;4.20;;
17985;SDS011;9118;48.122;11.546;2023-02-26T11:36:49;6.50;;;4.37;;
17985;SDS011;9118;48.122;11.546;2023-02-26T11:39:20;5.03;;;4.43;;
17985;SDS011;9118;48.122;11.546;2023-02-26T11:41:49;4.43;;;3.73;;
17985;SDS011;9118;48.122;11.546;2023-02-26T11:47:04;7.27;;;4.70;;
17985;SDS011;9118;48.122;11.546;2023-02-26T11:49:34;5.17;;;4.53;;
17985;SDS011;9118;48.122;11.546;2023-02-26T11:52:15;5.37;;;4.37;;
17985;SDS011;9118;48.122;11.546;2023-02-26T11:54:45;5.03;;;4.30;;
17985;SDS011;9118;48.122;11.546;2023-02-26T11:57:16;4.33;;;3.93;;
17985;SDS011;9118;48.122;11.546;2023-02-26T11:59:46;4.20;;;3.80;;
17985;SDS011;9118;48.122;11.546;2023-02-26T12:02:14;4.77;;;4.03;;
17985;SDS011;9118;48.122;11.546;2023-02-26T12:04:46;3.93;;;3.53;;
17985;SDS011;9118;48.122;11.546;2023-02-26T12:07:16;4.70;;;4.00;;
17985;SDS011;9118;48.122;11.546;2023-02-26T12:09:45;6.37;;;4.67;;
17985;SDS011;9118;48.122;11.546;2023-02-26T12:12:16;8.93;;;3.80;;
17985;SDS011;9118;48.122;11.546;2023-02-26T12:15:11;4.37;;;3.70;;
17985;SDS011;9118;48.122;11.546;2023-02-26T12:17:54;3.90;;;3.30;;
17985;SDS011;9118;48.122;11.546;2023-02-26T12:20:44;8.37;;;3.97;;
17985;SDS011;9118;48.122;11.546;2023-02-26T12:23:18;5.63;;;4.47;;
17985;SDS011;9118;48.122;11.546;2023-02-26T12:25:57;4.77;;;3.13;;
17985;SDS011;9118;48.122;11.546;2023-02-26T12:31:36;3.83;;;3.40;;
17985;SDS011;9118;48.122;11.546;2023-02-26T12:34:30;3.77;;;3.40;;
17985;SDS011;9118;48.122;11.546;2023-02-26T12:37:21;4.10;;;3.43;;
17985;SDS011;9118;48.122;11.546;2023-02-26T12:40:00;4.73;;;3.07;;
17985;SDS011;9118;48.122;11.546;2023-02-26T12:42:36;5.63;;;3.80;;
17985;SDS011;9118;48.122;11.546;2023-02-26T12:45:14;3.70;;;3.30;;
17985;SDS011;9118;48.122;11.546;2023-02-26T12:47:50;2.83;;;2.63;;
17985;SDS011;9118;48.122;11.546;2023-02-26T12:50:32;4.23;;;3.20;;
17985;SDS011;9118;48.122;11.546;2023-02-26T12:53:09;3.13;;;2.67;;
17985;SDS011;9118;48.122;11.546;2023-02-26T12:55:43;3.13;;;2.83;;
17985;SDS011;9118;48.122;11.546;2023-02-26T13:01:05;4.00;;;3.40;;
17985;SDS011;9118;48.122;11.546;2023-02-26T13:09:08;3.80;;;3.33;;
17985;SDS011;9118;48.122;11.546;2023-02-26T13:11:45;3.60;;;3.20;;
17985;SDS011;9118;48.122;11.546;2023-02-26T13:14:17;8.87;;;6.13;;
17985;SDS011;9118;48.122;11.546;2023-02-26T13:16:47;4.40;;;3.10;;
17985;SDS011;9118;48.122;11.546;2023-02-26T13:19:20;3.70;;;3.17;;
17985;SDS011;9118;48.122;11.546;2023-02-26T13:21:50;3.90;;;3.00;;
17985;SDS011;9118;48.122;11.546;2023-02-26T13:24:22;3.20;;;2.60;;
17985;SDS011;9118;48.122;11.546;2023-02-26T13:26:52;2.60;;;2.40;;
17985;SDS011;9118;48.122;11.546;2023-02-26T13:29:24;3.63;;;3.10;;
17985;SDS011;9118;48.122;11.546;2023-02-26T13:31:52;4.93;;;2.90;;
17985;SDS011;9118;48.122;11.546;2023-02-26T13:34:34;4.03;;;3.20;;
17985;SDS011;9118;48.122;11.546;2023-02-26T13:37:05;4.50;;;3.00;;
17985;SDS011;9118;48.122;11.546;2023-02-26T13:39:40;3.77;;;3.07;;
17985;SDS011;9118;48.122;11.546;2023-02-26T13:42:19;3.80;;;2.90;;
17985;SDS011;9118;48.122;11.546;2023-02-26T13:44:51;4.27;;;2.90;;
17985;SDS011;9118;48.122;11.546;2023-02-26T13:47:30;6.27;;;3.93;;
17985;SDS011;9118;48.122;11.546;2023-02-26T13:50:04;6.47;;;4.67;;
17985;SDS011;9118;48.122;11.546;2023-02-26T13:52:34;3.37;;;3.00;;
17985;SDS011;9118;48.122;11.546;2023-02-26T13:55:03;4.13;;;3.00;;
17985;SDS011;9118;48.122;11.546;2023-02-26T13:57:35;3.33;;;2.70;;
17985;SDS011;9118;48.122;11.546;2023-02-26T14:00:07;6.70;;;4.90;;
17985;SDS011;9118;48.122;11.546;2023-02-26T14:02:44;5.20;;;3.40;;
17985;SDS011;9118;48.122;11.546;2023-02-26T14:05:29;20.33;;;9.83;;
17985;SDS011;9118;48.122;11.546;2023-02-26T14:08:08;8.03;;;5.60;;
17985;SDS011;9118;48.122;11.546;2023-02-26T14:10:44;3.87;;;2.80;;
17985;SDS011;9118;48.122;11.546;2023-02-26T14:13:13;5.60;;;3.80;;
17985;SDS011;9118;48.122;11.546;2023-02-26T14:15:41;2.60;;;2.37;;
17985;SDS011;9118;48.122;11.546;2023-02-26T14:23:46;3.03;;;2.50;;
17985;SDS011;9118;48.122;11.546;2023-02-26T14:26:17;3.27;;;2.57;;
17985;SDS011;9118;48.122;11.546;2023-02-26T14:28:53;7.20;;;4.77;;
17985;SDS011;9118;48.122;11.546;2023-02-26T14:31:22;7.07;;;4.97;;
17985;SDS011;9118;48.122;11.546;2023-02-26T14:33:58;5.63;;;4.13;;
17985;SDS011;9118;48.122;11.546;2023-02-26T14:36:27;3.97;;;2.90;;
17985;SDS011;9118;48.122;11.546;2023-02-26T14:38:57;5.23;;;3.90;;
17985;SDS011;9118;48.122;11.546;2023-02-26T14:41:30;6.23;;;3.47;;
17985;SDS011;9118;48.122;11.546;2023-02-26T14:44:01;9.57;;;5.27;;
17985;SDS011;9118;48.122;11.546;2023-02-26T14:46:30;4.60;;;2.90;;
17985;SDS011;9118;48.122;11.546;2023-02-26T14:48:59;4.87;;;3.43;;
17985;SDS011;9118;48.122;11.546;2023-02-26T14:51:31;9.80;;;6.40;;
17985;SDS011;9118;48.122;11.546;2023-02-26T14:54:11;9.77;;;6.57;;
17985;SDS011;9118;48.122;11.546;2023-02-26T14:56:53;4.60;;;3.40;;
17985;SDS011;9118;48.122;11.546;2023-02-26T14:59:32;3.40;;;2.80;;
17985;SDS011;9118;48.122;11.546;2023-02-26T15:02:16;3.20;;;2.77;;
17985;SDS011;9118;48.122;11.546;2023-02-26T15:10:53;9.73;;;3.23;;
17985;SDS011;9118;48.122;11.546;2023-02-26T15:13:43;3.37;;;2.60;;
17985;SDS011;9118;48.122;11.546;2023-02-26T15:16:27;4.20;;;3.20;;
17985;SDS011;9118;48.122;11.546;2023-02-26T15:19:07;7.77;;;3.10;;
17985;SDS011;9118;48.122;11.546;2023-02-26T15:21:55;3.33;;;3.00;;
17985;SDS011;9118;48.122;11.546;2023-02-26T15:24:28;4.10;;;3.10;;
17985;SDS011;9118;48.122;11.546;2023-02-26T15:26:57;5.43;;;4.70;;
17985;SDS011;9118;48.122;11.546;2023-02-26T15:29:29;3.13;;;2.30;;
17985;SDS011;9118;48.122;11.546;2023-02-26T15:32:04;4.70;;;3.33;;
17985;SDS011;9118;48.122;11.546;2023-02-26T15:34:44;3.70;;;2.83;;
17985;SDS011;9118;48.122;11.546;2023-02-26T15:37:17;10.47;;;5.40;;
17985;SDS011;9118;48.122;11.546;2023-02-26T15:39:48;5.17;;;3.30;;